createdAt,value
2018-04-29T00:02:20.993Z,1.83
2018-04-29T00:04:50.218Z,1.57
2018-04-29T00:07:18.591Z,2.13
2018-04-29T00:09:50.785Z,1.40
2018-04-29T00:12:20.086Z,1.60
2018-04-29T00:14:50.289Z,1.80
2018-04-29T00:17:19.545Z,1.73
2018-04-29T00:19:47.951Z,1.80
2018-04-29T00:22:17.758Z,1.90
2018-04-29T00:24:47.292Z,1.53
2018-04-29T00:27:15.687Z,1.47
2018-04-29T00:29:46.000Z,1.63
2018-04-29T00:32:15.873Z,1.70
2018-04-29T00:34:44.222Z,1.50
2018-04-29T00:37:17.776Z,1.70
2018-04-29T00:39:47.802Z,1.77
2018-04-29T00:42:18.967Z,1.57
2018-04-29T00:44:47.501Z,1.83
2018-04-29T00:47:16.483Z,1.80
2018-04-29T00:49:44.920Z,1.80
2018-04-29T00:52:14.090Z,1.57
2018-04-29T00:54:45.443Z,1.67
2018-04-29T00:57:19.607Z,1.50
2018-04-29T01:00:03.087Z,1.43
2018-04-29T01:02:34.308Z,1.53
2018-04-29T01:05:03.657Z,1.90
2018-04-29T01:07:33.827Z,1.80
2018-04-29T01:10:03.005Z,1.40
2018-04-29T01:12:32.370Z,1.50
2018-04-29T01:15:01.286Z,2.13
2018-04-29T01:17:32.078Z,1.30
2018-04-29T01:20:00.409Z,1.50
2018-04-29T01:22:29.976Z,1.50
2018-04-29T01:24:58.347Z,1.70
2018-04-29T01:27:29.741Z,1.60
2018-04-29T01:29:58.130Z,1.60
2018-04-29T01:32:29.094Z,1.60
2018-04-29T01:34:59.361Z,1.57
2018-04-29T01:37:31.352Z,1.67
2018-04-29T01:40:03.384Z,1.70
2018-04-29T01:42:31.703Z,1.73
2018-04-29T01:45:01.727Z,1.63
2018-04-29T01:47:31.078Z,1.80
2018-04-29T01:50:02.142Z,1.70
2018-04-29T01:52:31.942Z,1.40
2018-04-29T01:55:01.124Z,1.60
2018-04-29T01:57:30.388Z,1.80
2018-04-29T01:59:59.781Z,1.80
2018-04-29T02:02:28.104Z,1.30
2018-04-29T02:04:56.647Z,1.50
2018-04-29T02:07:25.218Z,1.60
2018-04-29T02:09:54.795Z,1.60
2018-04-29T02:12:30.502Z,1.57
2018-04-29T02:14:59.542Z,2.07
2018-04-29T02:17:28.411Z,1.50
2018-04-29T02:19:57.944Z,1.60
2018-04-29T02:22:34.612Z,1.53
2018-04-29T02:25:04.559Z,1.77
2018-04-29T02:27:34.144Z,2.00
2018-04-29T02:30:04.704Z,1.50
2018-04-29T02:32:33.815Z,1.57
2018-04-29T02:35:03.390Z,1.63
2018-04-29T02:37:32.595Z,1.50
2018-04-29T02:40:00.906Z,1.50
2018-04-29T02:42:30.150Z,1.57
2018-04-29T02:44:59.946Z,1.30
2018-04-29T02:47:29.251Z,1.47
2018-04-29T02:49:57.654Z,1.67
2018-04-29T02:52:26.021Z,1.43
2018-04-29T02:55:00.434Z,1.50
2018-04-29T02:57:29.696Z,1.70
2018-04-29T02:59:59.379Z,1.53
2018-04-29T03:02:30.649Z,1.37
2018-04-29T04:01:56.811Z,1.40
2018-04-29T04:04:25.127Z,1.60
2018-04-29T04:06:54.150Z,1.60
2018-04-29T04:09:25.581Z,1.63
2018-04-29T04:11:53.936Z,1.83
2018-04-29T04:14:23.436Z,1.50
2018-04-29T04:16:52.588Z,1.67
2018-04-29T04:19:20.922Z,1.80
2018-04-29T04:21:51.697Z,1.67
2018-04-29T04:24:21.178Z,1.77
2018-04-29T04:26:50.642Z,1.37
2018-04-29T04:29:19.913Z,1.67
2018-04-29T04:31:49.442Z,1.60
2018-04-29T04:34:18.747Z,1.47
2018-04-29T04:36:49.340Z,1.53
2018-04-29T04:39:18.602Z,1.40
2018-04-29T04:41:56.335Z,1.43
2018-04-29T04:44:26.844Z,1.50
2018-04-29T04:46:56.724Z,1.53
2018-04-29T04:49:26.434Z,1.40
2018-04-29T04:51:58.943Z,1.77
2018-04-29T04:54:28.854Z,1.60
2018-04-29T04:56:57.421Z,1.37
2018-04-29T04:59:27.314Z,1.33
2018-04-29T05:01:57.707Z,1.60
2018-04-29T05:04:28.096Z,1.40
2018-04-29T05:06:59.227Z,1.70
2018-04-29T05:09:28.722Z,1.43
2018-04-29T05:11:59.614Z,1.37
2018-04-29T05:14:28.910Z,1.50
2018-04-29T05:16:58.214Z,1.47
2018-04-29T05:19:27.618Z,1.73
2018-04-29T05:21:56.849Z,1.50
2018-04-29T05:24:26.362Z,1.73
2018-04-29T05:26:55.335Z,1.70
2018-04-29T05:29:26.023Z,1.50
2018-04-29T05:32:05.421Z,1.63
2018-04-29T05:34:35.617Z,1.40
2018-04-29T05:37:05.003Z,1.70
2018-04-29T05:39:33.909Z,1.50
2018-04-29T05:44:55.454Z,1.93
2018-04-29T05:47:25.799Z,1.80
2018-04-29T05:49:55.725Z,1.40
2018-04-29T05:52:46.345Z,1.63
2018-04-29T05:55:16.242Z,1.70
2018-04-29T05:57:45.968Z,1.43
2018-04-29T06:00:15.813Z,1.63
2018-04-29T06:02:50.071Z,1.70
2018-04-29T06:05:20.101Z,1.40
2018-04-29T06:07:49.289Z,1.60
2018-04-29T06:10:18.813Z,1.63
2018-04-29T06:13:02.694Z,1.47
2018-04-29T06:15:34.567Z,1.40
2018-04-29T06:18:04.718Z,1.60
2018-04-29T06:20:33.220Z,1.50
2018-04-29T06:23:01.659Z,1.67
2018-04-29T06:25:32.135Z,1.40
2018-04-29T06:28:00.487Z,1.50
2018-04-29T06:30:31.825Z,1.50
2018-04-29T06:33:07.400Z,1.53
2018-04-29T06:35:37.576Z,1.30
2018-04-29T06:40:43.024Z,1.60
2018-04-29T06:43:20.045Z,1.43
2018-04-29T06:45:50.608Z,1.73
2018-04-29T06:48:20.150Z,1.77
2018-04-29T06:50:51.083Z,1.50
2018-04-29T06:53:19.407Z,1.60
2018-04-29T06:55:48.630Z,1.50
2018-04-29T06:58:17.346Z,1.37
2018-04-29T07:00:47.984Z,1.70
2018-04-29T07:03:18.751Z,1.43
2018-04-29T07:05:49.563Z,1.40
2018-04-29T07:08:18.887Z,1.60
2018-04-29T07:10:47.931Z,1.37
2018-04-29T07:13:16.857Z,1.43
2018-04-29T07:15:46.422Z,1.60
2018-04-29T07:18:14.810Z,1.63
2018-04-29T07:20:45.502Z,1.90
2018-04-29T07:23:15.281Z,1.30
2018-04-29T07:25:51.140Z,1.60
2018-04-29T07:28:21.555Z,1.53
2018-04-29T07:30:51.307Z,1.40
2018-04-29T07:33:25.283Z,1.37
2018-04-29T07:35:54.186Z,1.50
2018-04-29T07:38:24.521Z,1.43
2018-04-29T07:40:54.898Z,1.40
2018-04-29T07:43:26.230Z,1.30
2018-04-29T07:45:55.195Z,1.30
2018-04-29T07:48:26.239Z,1.50
2018-04-29T07:50:57.096Z,1.50
2018-04-29T07:53:27.189Z,1.50
2018-04-29T07:55:57.182Z,1.60
2018-04-29T07:58:25.491Z,1.50
2018-04-29T08:00:55.302Z,1.50
2018-04-29T08:03:23.699Z,1.30
2018-04-29T08:05:55.847Z,1.47
2018-04-29T08:08:27.860Z,1.03
2018-04-29T08:11:12.671Z,1.40
2018-04-29T08:14:00.498Z,1.70
2018-04-29T08:19:38.495Z,1.30
2018-04-29T08:22:48.249Z,1.30
2018-04-29T08:51:35.998Z,1.43
2018-04-29T08:54:05.286Z,1.43
2018-04-29T08:56:35.432Z,2.47
2018-04-29T08:59:03.735Z,2.33
2018-04-29T09:01:46.619Z,2.50
2018-04-29T09:04:15.220Z,3.57
2018-04-29T09:06:45.648Z,2.57
2018-04-29T09:09:15.691Z,3.03
2018-04-29T09:11:51.680Z,2.73
2018-04-29T09:14:26.360Z,2.90
2018-04-29T09:16:56.343Z,2.57
2018-04-29T09:19:25.672Z,3.03
2018-04-29T09:21:55.816Z,3.10
2018-04-29T09:24:24.636Z,2.73
2018-04-29T09:26:53.695Z,2.87
2018-04-29T09:29:22.297Z,2.80
2018-04-29T09:31:57.459Z,2.83
2018-04-29T09:34:27.912Z,2.10
2018-04-29T09:36:56.820Z,2.53
2018-04-29T09:39:26.071Z,2.63
2018-04-29T09:41:57.962Z,2.77
2018-04-29T09:44:27.117Z,2.57
2018-04-29T09:46:55.760Z,2.23
2018-04-29T09:49:25.398Z,2.37
2018-04-29T09:51:54.590Z,3.00
2018-04-29T09:54:25.080Z,2.50
2018-04-29T09:56:55.137Z,2.80
2018-04-29T09:59:24.391Z,2.50
2018-04-29T10:01:54.920Z,2.40
2018-04-29T10:04:24.932Z,2.60
2018-04-29T10:06:54.678Z,2.07
2018-04-29T10:09:24.404Z,2.43
2018-04-29T10:11:52.886Z,2.50
2018-04-29T10:14:24.476Z,2.40
2018-04-29T10:16:57.734Z,2.30
2018-04-29T10:19:26.999Z,3.00
2018-04-29T10:22:12.937Z,2.30
2018-04-29T10:24:42.665Z,2.40
2018-04-29T10:27:11.967Z,2.20
2018-04-29T10:29:42.026Z,2.77
2018-04-29T10:32:12.779Z,2.40
2018-04-29T10:34:42.003Z,2.47
2018-04-29T10:37:11.832Z,2.40
2018-04-29T10:39:41.487Z,2.83
2018-04-29T10:42:11.065Z,2.40
2018-04-29T10:44:42.204Z,2.70
2018-04-29T10:47:12.450Z,2.17
2018-04-29T10:49:43.284Z,2.40
2018-04-29T10:52:12.957Z,2.97
2018-04-29T10:54:45.032Z,2.63
2018-04-29T10:57:14.253Z,3.03
2018-04-29T10:59:44.752Z,2.97
2018-04-29T11:02:19.302Z,2.40
2018-04-29T11:04:47.868Z,3.33
2018-04-29T11:07:17.015Z,2.30
2018-04-29T11:09:46.127Z,2.47
2018-04-29T11:12:29.183Z,2.40
2018-04-29T11:14:58.574Z,3.00
2018-04-29T11:17:29.523Z,3.30
2018-04-29T11:20:00.797Z,3.83
2018-04-29T11:22:30.840Z,3.63
2018-04-29T11:24:59.941Z,3.37
2018-04-29T11:27:29.899Z,3.37
2018-04-29T11:29:59.211Z,2.50
2018-04-29T11:32:39.970Z,2.57
2018-04-29T11:35:11.974Z,2.43
2018-04-29T11:37:43.199Z,2.73
2018-04-29T11:40:12.678Z,1.93
2018-04-29T11:42:55.132Z,2.37
2018-04-29T11:45:25.730Z,2.83
2018-04-29T11:47:57.579Z,2.63
2018-04-29T11:50:27.970Z,2.37
2018-04-29T11:52:59.271Z,2.63
2018-04-29T11:55:31.363Z,2.33
2018-04-29T11:58:00.673Z,2.33
2018-04-29T12:00:32.265Z,3.40
2018-04-29T12:03:08.897Z,3.50
2018-04-29T12:05:39.400Z,4.67
2018-04-29T12:08:13.192Z,4.13
2018-04-29T12:10:44.066Z,3.30
2018-04-29T12:13:20.850Z,3.97
2018-04-29T12:15:52.293Z,6.60
2018-04-29T12:18:21.777Z,12.07
2018-04-29T12:20:51.375Z,29.70
2018-04-29T12:23:21.296Z,53.07
2018-04-29T12:25:53.376Z,56.37
2018-04-29T12:28:24.378Z,98.27
2018-04-29T12:30:55.056Z,100.17
2018-04-29T12:33:47.022Z,98.57
2018-04-29T12:36:17.233Z,95.83
2018-04-29T12:38:45.685Z,91.53
2018-04-29T12:41:16.210Z,100.17
2018-04-29T12:43:57.046Z,96.87
2018-04-29T12:46:27.754Z,90.37
2018-04-29T12:48:58.070Z,122.43
2018-04-29T12:51:28.041Z,85.17
2018-04-29T12:54:02.346Z,86.47
2018-04-29T12:56:30.798Z,83.07
2018-04-29T12:58:59.142Z,68.87
2018-04-29T13:01:30.143Z,57.33
2018-04-29T13:03:59.508Z,110.50
2018-04-29T13:06:29.967Z,68.67
2018-04-29T13:08:58.445Z,65.27
2018-04-29T13:11:29.925Z,64.37
2018-04-29T13:14:08.689Z,63.97
2018-04-29T13:16:38.067Z,62.50
2018-04-29T13:19:07.525Z,62.17
2018-04-29T13:21:36.607Z,65.40
2018-04-29T13:24:09.198Z,64.17
2018-04-29T13:26:39.125Z,65.00
2018-04-29T13:29:10.028Z,64.73
2018-04-29T13:31:40.484Z,41.17
2018-04-29T13:34:10.706Z,42.77
2018-04-29T13:36:40.636Z,43.83
2018-04-29T13:39:11.117Z,35.27
2018-04-29T13:41:41.326Z,30.40
2018-04-29T13:44:09.732Z,24.50
2018-04-29T13:46:39.761Z,25.73
2018-04-29T13:49:11.359Z,22.10
2018-04-29T13:51:41.202Z,22.17
2018-04-29T13:57:18.092Z,26.67
2018-04-29T13:59:46.420Z,30.83
2018-04-29T14:02:15.526Z,25.20
2018-04-29T14:04:45.290Z,19.70
2018-04-29T14:07:14.716Z,18.67
2018-04-29T14:09:51.333Z,20.40
2018-04-29T14:12:19.757Z,35.97
2018-04-29T14:14:49.026Z,23.00
2018-04-29T14:17:19.130Z,14.63
2018-04-29T14:19:52.290Z,13.10
2018-04-29T14:22:21.880Z,23.80
2018-04-29T14:24:53.319Z,20.67
2018-04-29T14:30:31.382Z,18.50
2018-04-29T14:33:00.221Z,20.83
2018-04-29T14:35:30.024Z,17.30
2018-04-29T14:37:59.819Z,19.80
2018-04-29T14:40:43.449Z,14.17
2018-04-29T14:43:14.049Z,13.03
2018-04-29T14:45:43.120Z,14.03
2018-04-29T14:48:15.905Z,11.67
2018-04-29T14:50:50.898Z,9.93
2018-04-29T14:53:21.042Z,10.70
2018-04-29T14:55:49.415Z,10.43
2018-04-29T14:58:17.726Z,13.27
2018-04-29T15:01:01.436Z,15.60
2018-04-29T15:03:32.668Z,15.27
2018-04-29T15:06:01.092Z,40.73
2018-04-29T15:08:30.594Z,42.93
2018-04-29T15:10:59.755Z,13.03
2018-04-29T15:13:29.805Z,14.67
2018-04-29T15:15:59.119Z,12.37
2018-04-29T15:18:40.874Z,12.40
2018-04-29T15:21:14.704Z,15.87
2018-04-29T15:23:43.711Z,12.07
2018-04-29T15:26:15.056Z,13.97
2018-04-29T15:28:45.450Z,13.30
2018-04-29T15:31:16.778Z,11.63
2018-04-29T15:33:47.993Z,13.03
2018-04-29T15:36:16.405Z,10.37
2018-04-29T15:38:45.670Z,80.23
2018-04-29T15:41:16.311Z,15.13
2018-04-29T15:43:45.056Z,59.67
2018-04-29T15:46:14.345Z,12.23
2018-04-29T15:48:43.781Z,12.43
2018-04-29T15:51:18.683Z,9.83
2018-04-29T15:53:48.699Z,18.17
2018-04-29T15:56:17.527Z,31.20
2018-04-29T15:58:45.906Z,10.73
2018-04-29T16:01:14.432Z,10.57
2018-04-29T16:03:44.069Z,10.23
2018-04-29T16:06:13.294Z,11.80
2018-04-29T16:08:44.607Z,46.87
2018-04-29T16:11:14.626Z,28.83
2018-04-29T16:13:45.179Z,34.43
2018-04-29T16:16:15.097Z,28.07
2018-04-29T16:18:45.540Z,9.70
2018-04-29T16:21:16.437Z,9.20
2018-04-29T16:23:45.655Z,8.47
2018-04-29T16:26:15.162Z,6.47
2018-04-29T16:28:43.966Z,8.30
2018-04-29T16:31:14.899Z,11.90
2018-04-29T16:33:45.016Z,14.80
2018-04-29T16:36:16.641Z,14.70
2018-04-29T16:38:46.312Z,10.73
2018-04-29T16:41:19.849Z,15.50
2018-04-29T16:43:49.456Z,13.63
2018-04-29T16:46:20.367Z,12.23
2018-04-29T16:48:50.371Z,14.17
2018-04-29T16:51:19.547Z,12.37
2018-04-29T16:53:49.477Z,9.70
2018-04-29T16:56:17.854Z,9.90
2018-04-29T16:58:47.676Z,8.03
2018-04-29T17:01:16.088Z,7.27
2018-04-29T17:03:45.546Z,8.50
2018-04-29T17:06:17.150Z,6.50
2018-04-29T17:08:46.453Z,8.17
2018-04-29T17:11:15.887Z,6.27
2018-04-29T17:13:45.804Z,6.40
2018-04-29T17:16:15.230Z,6.23
2018-04-29T17:18:44.412Z,6.20
2018-04-29T17:21:14.061Z,7.03
2018-04-29T17:23:43.556Z,7.53
2018-04-29T17:26:13.854Z,7.27
2018-04-29T17:28:43.295Z,7.10
2018-04-29T17:31:23.849Z,6.40
2018-04-29T17:33:52.918Z,6.93
2018-04-29T17:36:22.993Z,5.93
2018-04-29T17:38:52.187Z,6.40
2018-04-29T17:41:21.378Z,5.07
2018-04-29T17:43:50.902Z,6.17
2018-04-29T17:46:20.510Z,5.50
2018-04-29T17:48:49.731Z,6.23
2018-04-29T17:51:18.090Z,5.77
2018-04-29T17:53:47.279Z,4.97
2018-04-29T17:56:15.918Z,5.30
2018-04-29T17:58:45.724Z,4.50
2018-04-29T18:01:15.147Z,5.40
2018-04-29T18:03:44.343Z,5.40
2018-04-29T18:06:12.735Z,5.30
2018-04-29T18:08:42.529Z,5.40
2018-04-29T18:11:15.018Z,4.67
2018-04-29T18:13:43.722Z,5.43
2018-04-29T18:16:12.559Z,4.80
2018-04-29T18:18:41.689Z,4.93
2018-04-29T18:21:13.895Z,4.30
2018-04-29T18:23:44.322Z,4.50
2018-04-29T18:26:13.639Z,4.37
2018-04-29T18:28:42.751Z,4.70
2018-04-29T18:31:25.027Z,4.10
2018-04-29T18:33:54.866Z,4.80
2018-04-29T18:36:23.775Z,3.53
2018-04-29T18:38:53.609Z,4.60
2018-04-29T18:41:22.566Z,5.73
2018-04-29T18:43:52.303Z,4.90
2018-04-29T18:46:22.430Z,4.40
2018-04-29T18:48:51.535Z,3.87
2018-04-29T18:51:28.455Z,7.23
2018-04-29T18:54:01.485Z,6.33
2018-04-29T18:56:31.824Z,4.27
2018-04-29T18:59:00.658Z,9.60
2018-04-29T19:01:43.428Z,6.57
2018-04-29T19:04:14.205Z,5.57
2018-04-29T19:06:44.923Z,3.73
2018-04-29T19:09:14.193Z,5.53
2018-04-29T19:11:51.474Z,5.60
2018-04-29T19:14:24.508Z,29.90
2018-04-29T19:16:58.185Z,5.73
2018-04-29T19:22:14.685Z,11.07
2018-04-29T19:24:44.220Z,7.40
2018-04-29T19:27:17.677Z,26.87
2018-04-29T19:29:52.476Z,15.93
2018-04-29T19:32:24.625Z,17.77
2018-04-29T19:37:53.549Z,16.80
2018-04-29T19:40:31.819Z,35.97
2018-04-29T19:45:51.367Z,9.37
2018-04-29T19:48:23.667Z,12.90
2018-04-29T19:50:54.658Z,5.40
2018-04-29T19:53:29.674Z,7.37
2018-04-29T19:56:00.852Z,10.43
2018-04-29T19:58:31.783Z,9.00
2018-04-29T20:01:02.998Z,45.17
2018-04-29T20:03:34.154Z,31.97
2018-04-29T20:06:04.856Z,57.47
2018-04-29T20:08:37.011Z,52.30
2018-04-29T20:11:22.079Z,45.37
2018-04-29T20:13:52.029Z,73.13
2018-04-29T20:16:21.765Z,47.23
2018-04-29T20:19:06.692Z,64.80
2018-04-29T20:21:40.781Z,75.57
2018-04-29T20:24:09.324Z,46.07
2018-04-29T20:26:42.219Z,53.57
2018-04-29T20:29:20.035Z,71.40
2018-04-29T20:31:51.455Z,55.67
2018-04-29T20:34:20.733Z,70.53
2018-04-29T20:36:51.148Z,57.43
2018-04-29T20:39:20.809Z,51.43
2018-04-29T20:41:52.045Z,80.30
2018-04-29T20:44:24.415Z,74.70
2018-04-29T20:46:55.427Z,76.83
2018-04-29T20:49:34.349Z,103.80
2018-04-29T20:52:04.181Z,96.43
2018-04-29T20:54:37.291Z,80.20
2018-04-29T20:57:09.383Z,87.27
2018-04-29T20:59:40.743Z,78.10
2018-04-29T21:02:09.472Z,76.53
2018-04-29T21:04:39.766Z,75.63
2018-04-29T21:07:10.319Z,81.97
2018-04-29T21:09:43.037Z,73.10
2018-04-29T21:12:13.026Z,86.70
2018-04-29T21:14:43.441Z,104.67
2018-04-29T21:17:15.331Z,103.10
2018-04-29T21:19:52.091Z,99.20
2018-04-29T21:22:25.886Z,108.07
2018-04-29T21:24:56.470Z,110.30
2018-04-29T21:27:29.308Z,116.80
2018-04-29T21:30:09.469Z,113.53
2018-04-29T21:32:39.445Z,105.13
2018-04-29T21:35:08.172Z,87.77
2018-04-29T21:37:40.378Z,100.20
2018-04-29T21:40:13.366Z,105.43
2018-04-29T21:42:48.421Z,102.53
2018-04-29T21:45:19.444Z,97.93
2018-04-29T21:47:51.769Z,90.07
2018-04-29T21:50:27.814Z,78.67
2018-04-29T21:53:00.783Z,96.27
2018-04-29T21:55:33.534Z,90.57
2018-04-29T21:58:04.242Z,81.03
2018-04-29T22:00:41.707Z,96.53
2018-04-29T22:03:14.670Z,84.00
2018-04-29T22:05:45.681Z,80.37
2018-04-29T22:08:18.430Z,61.47
2018-04-29T22:10:50.130Z,53.07
2018-04-29T22:13:21.420Z,48.90
2018-04-29T22:15:56.144Z,42.73
2018-04-29T22:18:25.380Z,44.73
2018-04-29T22:20:58.116Z,38.17
2018-04-29T22:23:27.533Z,34.43
2018-04-29T22:26:03.255Z,25.60
2018-04-29T22:28:39.656Z,31.00
2018-04-29T22:31:19.271Z,26.43
2018-04-29T22:36:31.973Z,23.83
2018-04-29T22:39:07.607Z,21.67
2018-04-29T22:41:41.726Z,19.23
2018-04-29T22:44:15.349Z,19.70
2018-04-29T22:46:47.968Z,18.60
2018-04-29T22:49:26.866Z,16.47
2018-04-29T22:52:12.448Z,17.67
2018-04-29T22:54:44.907Z,19.30
2018-04-29T22:57:21.029Z,18.73
2018-04-29T22:59:51.026Z,19.07
2018-04-29T23:02:20.528Z,26.70
2018-04-29T23:04:51.326Z,29.33
2018-04-29T23:07:23.139Z,39.27
2018-04-29T23:09:52.959Z,19.37
2018-04-29T23:12:30.011Z,23.17
2018-04-29T23:15:07.629Z,17.47
2018-04-29T23:17:42.931Z,15.83
2018-04-29T23:20:15.479Z,15.00
2018-04-29T23:22:54.227Z,15.57
2018-04-29T23:25:24.451Z,16.50
2018-04-29T23:27:55.812Z,12.73
2018-04-29T23:30:28.761Z,13.47
2018-04-29T23:35:37.557Z,12.93
2018-04-29T23:38:06.716Z,15.30
2018-04-29T23:40:37.000Z,12.70
2018-04-29T23:43:08.201Z,11.70
2018-04-29T23:45:41.231Z,14.40
2018-04-29T23:48:12.527Z,11.80
2018-04-29T23:50:47.967Z,11.97
2018-04-29T23:53:19.106Z,12.37
2018-04-29T23:55:51.997Z,12.17
2018-04-29T23:58:24.248Z,10.20
